Time;durP1;ratioP1;P1;durP2;ratioP2;P2;SDS_P1;SDS_P2;PMS_P1;PMS_P2;Temp;Humidity;BMP_temperature;BMP_pressure;BME280_temperature;BME280_humidity;BME280_pressure;Samples;Min_cycle;Max_cycle;Signal;HPM_P1;HPM_P2
2023/08/03 04:22:32;;;;;;;5.15;1.40;;;;;;;18.19;76.39;98877.00;5077838;27;20457;-70
2023/08/03 04:24:59;;;;;;;9.65;1.35;;;;;;;18.10;77.88;98892.00;5047997;28;20044;-68
2023/08/03 04:27:26;;;;;;;6.80;1.05;;;;;;;18.00;83.58;98886.53;5064523;28;20087;-69
2023/08/03 04:29:51;;;;;;;5.45;1.10;;;;;;;17.70;88.40;98901.25;5047679;28;20500;-69
2023/08/03 04:32:17;;;;;;;6.65;1.13;;;;;;;17.58;89.67;98900.56;5049262;28;20118;-68
2023/08/03 04:34:44;;;;;;;9.75;2.30;;;;;;;17.38;91.01;98909.22;5047870;28;20546;-69
2023/08/03 04:37:10;;;;;;;5.47;1.02;;;;;;;17.34;90.76;98903.53;5049072;28;20045;-69
2023/08/03 04:39:37;;;;;;;4.40;1.20;;;;;;;17.28;91.17;98891.06;5047514;28;20037;-69
2023/08/03 04:42:03;;;;;;;9.48;1.60;;;;;;;17.21;90.84;98897.69;5048933;28;20055;-69
2023/08/03 04:44:31;;;;;;;6.22;1.52;;;;;;;17.23;89.59;98887.50;5047628;28;20041;-69
2023/08/03 04:46:56;;;;;;;8.43;1.75;;;;;;;17.28;88.85;98891.06;5048859;28;20403;-69
2023/08/03 04:49:25;;;;;;;7.67;1.40;;;;;;;17.29;89.27;98887.31;5047326;28;20033;-69
2023/08/03 04:51:53;;;;;;;3.28;1.15;;;;;;;17.33;89.35;98898.38;5047557;28;20060;-69
2023/08/03 04:54:20;;;;;;;7.57;1.90;;;;;;;17.36;88.64;98892.50;5047489;28;20060;-69
2023/08/03 04:56:46;;;;;;;8.80;1.48;;;;;;;17.37;87.67;98894.13;5040641;28;20533;-69
2023/08/03 04:59:11;;;;;;;10.25;2.03;;;;;;;17.44;86.86;98897.44;5046471;28;20037;-69
2023/08/03 05:01:37;;;;;;;5.70;1.20;;;;;;;17.49;86.91;98905.59;5047314;28;20059;-68
2023/08/03 05:04:03;;;;;;;7.13;1.50;;;;;;;17.58;86.47;98903.25;5048834;28;20047;-68
2023/08/03 05:06:29;;;;;;;10.85;2.08;;;;;;;17.59;85.19;98921.84;5045690;28;20033;-69
2023/08/03 05:08:54;;;;;;;10.00;2.33;;;;;;;17.66;85.26;98915.47;5046339;28;20607;-69
2023/08/03 05:11:23;;;;;;;5.35;1.73;;;;;;;17.71;84.17;98923.63;5047098;28;20029;-68
2023/08/03 05:13:48;;;;;;;13.50;2.88;;;;;;;17.75;83.38;98924.78;5048179;28;20041;-69
2023/08/03 05:16:18;;;;;;;6.43;2.00;;;;;;;17.81;83.61;98924.59;5063622;28;20411;-69
2023/08/03 05:18:44;;;;;;;8.77;1.67;;;;;;;17.82;83.16;98920.81;5046655;28;20171;-69
2023/08/03 05:21:09;;;;;;;5.32;2.20;;;;;;;17.87;82.71;98928.16;5048180;28;20108;-69
2023/08/03 05:23:34;;;;;;;8.32;1.48;;;;;;;17.85;82.48;98922.19;5046927;28;20052;-69
2023/08/03 05:26:00;;;;;;;12.40;2.50;;;;;;;17.85;82.28;98930.25;5030300;28;20072;-69
2023/08/03 05:28:25;;;;;;;5.35;1.20;;;;;;;17.80;82.40;98928.34;5047729;28;20127;-67
2023/08/03 05:30:51;;;;;;;7.13;2.25;;;;;;;17.79;83.21;98939.34;5048141;28;20033;-66
2023/08/03 05:33:17;;;;;;;5.13;1.60;;;;;;;17.76;83.27;98924.53;5038164;28;20041;-67
2023/08/03 05:35:44;;;;;;;3.28;1.27;;;;;;;17.76;83.28;98939.88;5034621;28;20045;-67
2023/08/03 05:38:10;;;;;;;4.47;1.30;;;;;;;17.82;83.28;98941.56;5034405;28;20484;-67
2023/08/03 05:40:39;;;;;;;3.42;1.30;;;;;;;17.78;84.85;98960.09;5034447;28;20043;-66
2023/08/03 05:43:09;;;;;;;8.73;1.38;;;;;;;17.66;86.67;98961.25;5034653;28;20053;-67
2023/08/03 05:45:35;;;;;;;4.82;1.83;;;;;;;17.60;87.88;98968.44;5034473;28;20056;-67
2023/08/03 05:48:00;;;;;;;7.07;1.60;;;;;;;17.62;88.29;98969.03;5034252;28;20038;-67
2023/08/03 05:50:26;;;;;;;4.38;1.25;;;;;;;17.76;88.63;98966.81;5034445;28;20029;-67
2023/08/03 05:52:52;;;;;;;6.43;1.65;;;;;;;17.68;89.03;98972.59;5034364;28;20124;-66
2023/08/03 05:55:18;;;;;;;5.55;1.45;;;;;;;17.49;91.20;98969.38;5034192;28;20447;-66
2023/08/03 05:57:43;;;;;;;4.65;1.10;;;;;;;17.47;90.91;98972.31;5034229;28;20037;-66
2023/08/03 06:00:16;;;;;;;3.28;1.00;;;;;;;17.32;91.32;98974.81;5033971;28;20438;-66
2023/08/03 06:02:43;;;;;;;6.13;1.48;;;;;;;17.26;91.97;98965.84;5034326;28;20492;-66
2023/08/03 06:05:37;;;;;;;6.33;1.03;;;;;;;17.18;92.94;98973.53;5034072;28;20033;-66
2023/08/03 06:08:15;;;;;;;2.15;1.20;;;;;;;17.11;93.22;98986.34;5033911;28;20048;-66
2023/08/03 06:10:41;;;;;;;5.10;1.20;;;;;;;17.07;94.27;98986.81;5034077;28;20391;-66
2023/08/03 06:13:12;;;;;;;5.22;1.13;;;;;;;17.06;93.91;98987.06;5033863;28;20112;-66
2023/08/03 06:15:38;;;;;;;11.40;1.98;;;;;;;17.11;94.61;98984.47;5033955;28;20073;-66
2023/08/03 06:18:07;;;;;;;6.93;1.33;;;;;;;17.07;93.40;98986.00;5033619;28;20108;-66
2023/08/03 06:20:34;;;;;;;5.57;1.25;;;;;;;17.09;92.96;99002.72;5033712;28;20124;-66
2023/08/03 06:23:00;;;;;;;3.42;1.08;;;;;;;17.15;92.62;98990.16;5033877;28;20120;-67
2023/08/03 06:25:26;;;;;;;7.18;1.52;;;;;;;17.16;91.80;98992.59;5033668;28;20562;-67
2023/08/03 06:27:51;;;;;;;5.53;1.30;;;;;;;17.19;91.23;99000.19;5033422;28;20029;-66
2023/08/03 06:30:17;;;;;;;4.20;1.35;;;;;;;17.22;90.75;98998.88;5033680;28;20048;-67
2023/08/03 06:32:43;;;;;;;1.58;0.73;;;;;;;17.24;90.37;98994.06;5033678;28;20041;-66
2023/08/03 06:35:36;;;;;;;1.65;1.00;;;;;;;17.30;90.33;98987.69;5033632;28;20113;-66
2023/08/03 06:38:04;;;;;;;4.30;0.93;;;;;;;17.32;89.61;98991.75;5033477;28;20395;-65
2023/08/03 06:40:29;;;;;;;3.72;0.80;;;;;;;17.37;90.36;98999.09;5033463;28;20454;-65
2023/08/03 06:42:55;;;;;;;3.25;0.93;;;;;;;17.42;87.58;99001.88;5032742;28;20079;-65
2023/08/03 06:45:20;;;;;;;5.75;1.17;;;;;;;17.49;87.68;99005.19;5031383;28;20120;-65
2023/08/03 06:47:48;;;;;;;2.30;0.82;;;;;;;17.50;88.29;98997.94;5033028;28;20124;-65
2023/08/03 06:50:13;;;;;;;5.28;0.90;;;;;;;17.51;86.26;98997.69;5033243;28;20034;-65
2023/08/03 06:52:39;;;;;;;4.72;1.35;;;;;;;17.54;86.91;98999.88;5033282;28;20455;-65
2023/08/03 06:55:04;;;;;;;4.30;1.50;;;;;;;17.59;85.45;98999.94;5033151;28;20041;-65
2023/08/03 06:57:29;;;;;;;4.95;1.17;;;;;;;17.68;85.25;99004.91;5033108;28;20488;-65
2023/08/03 06:59:56;;;;;;;8.43;1.33;;;;;;;17.72;83.38;99014.13;5032772;28;20044;-65
2023/08/03 07:02:22;;;;;;;2.22;1.10;;;;;;;17.79;82.11;99007.50;5032908;28;20061;-65
2023/08/03 07:04:47;;;;;;;9.52;1.75;;;;;;;17.79;81.54;99028.22;5033040;28;20041;-65
2023/08/03 07:07:14;;;;;;;4.60;1.30;;;;;;;17.79;81.75;99022.84;5032837;28;20041;-65
2023/08/03 07:09:40;;;;;;;9.48;1.70;;;;;;;17.80;80.99;99013.69;5032483;28;20107;-65
2023/08/03 07:12:11;;;;;;;4.20;1.20;;;;;;;17.84;79.25;99028.28;5032863;28;20033;-65
2023/08/03 07:14:36;;;;;;;7.93;1.60;;;;;;;17.92;79.19;99011.69;5032761;28;20040;-65
2023/08/03 07:17:01;;;;;;;6.72;1.48;;;;;;;17.92;80.16;99030.56;5032787;28;20042;-65
2023/08/03 07:19:27;;;;;;;8.35;1.38;;;;;;;17.99;78.52;99039.25;5032467;28;20087;-65
2023/08/03 07:21:52;;;;;;;3.83;1.15;;;;;;;18.00;77.27;99035.53;5032609;28;20041;-64
2023/08/03 07:24:18;;;;;;;3.55;1.00;;;;;;;18.05;77.12;99029.38;5032635;28;20068;-65
2023/08/03 07:26:43;;;;;;;5.75;1.55;;;;;;;18.16;77.66;99045.41;5029392;28;20026;-65
2023/08/03 07:29:08;;;;;;;4.40;1.10;;;;;;;18.17;75.20;99038.94;5021570;28;20489;-64
2023/08/03 07:31:34;;;;;;;4.78;1.55;;;;;;;18.26;76.25;99035.81;5023564;28;20030;-65
2023/08/03 07:33:59;;;;;;;5.68;1.40;;;;;;;18.33;74.58;99045.34;5023108;28;20404;-65
2023/08/03 07:36:25;;;;;;;6.15;1.42;;;;;;;18.33;75.21;99039.94;5022243;28;20040;-64
2023/08/03 07:38:52;;;;;;;3.88;1.35;;;;;;;18.37;75.67;99041.06;4997947;28;20503;-65
2023/08/03 07:41:18;;;;;;;5.22;1.20;;;;;;;18.45;74.56;99047.88;5022726;28;20039;-64
2023/08/03 07:43:43;;;;;;;3.90;1.50;;;;;;;18.48;73.74;99054.66;5022475;28;20123;-64
2023/08/03 07:46:09;;;;;;;7.10;1.30;;;;;;;18.56;73.16;99059.59;5022743;28;20033;-64
2023/08/03 07:48:34;;;;;;;3.45;1.08;;;;;;;18.56;72.65;99070.38;5020724;28;20531;-64
2023/08/03 07:50:59;;;;;;;5.65;1.10;;;;;;;18.57;72.35;99064.72;5022813;28;20117;-65
2023/08/03 07:53:25;;;;;;;5.25;1.60;;;;;;;18.57;72.81;99069.31;5021909;28;20504;-63
2023/08/03 07:55:50;;;;;;;4.50;1.42;;;;;;;18.55;72.63;99079.53;5020862;28;20488;-65
2023/08/03 07:58:15;;;;;;;6.15;1.23;;;;;;;18.50;72.77;99076.78;5022585;28;20037;-64
2023/08/03 08:00:41;;;;;;;6.25;0.90;;;;;;;18.41;72.32;99085.31;5023856;28;20396;-65
2023/08/03 08:03:06;;;;;;;2.50;0.75;;;;;;;18.49;72.63;99096.72;5022121;28;20045;-65
2023/08/03 08:05:32;;;;;;;5.40;1.08;;;;;;;18.41;73.81;99096.09;5022970;28;20407;-66
2023/08/03 08:07:57;;;;;;;5.75;1.23;;;;;;;18.44;73.74;99092.06;5023132;28;20061;-64
2023/08/03 08:10:22;;;;;;;5.32;1.25;;;;;;;18.35;74.00;99107.09;5017218;28;20049;-65
2023/08/03 08:12:48;;;;;;;3.67;1.08;;;;;;;18.31;76.54;99105.94;5020167;28;20045;-65
2023/08/03 08:15:13;;;;;;;9.48;1.45;;;;;;;18.26;76.90;99117.50;5031938;28;20045;-65
2023/08/03 08:17:38;;;;;;;4.43;1.13;;;;;;;18.14;77.57;99123.00;5031863;28;20028;-65
2023/08/03 08:20:05;;;;;;;4.10;1.13;;;;;;;18.13;79.06;99125.94;5031734;28;20045;-64
2023/08/03 08:22:30;;;;;;;4.40;1.00;;;;;;;18.13;80.64;99126.75;5031813;28;20029;-65
2023/08/03 08:24:56;;;;;;;3.42;1.25;;;;;;;18.08;81.31;99124.00;5031848;28;20515;-64
2023/08/03 08:27:22;;;;;;;4.32;1.20;;;;;;;18.04;81.13;99136.31;5031662;28;20404;-65
2023/08/03 08:29:47;;;;;;;5.00;1.30;;;;;;;18.06;81.44;99134.22;5031467;28;20025;-64
2023/08/03 08:32:12;;;;;;;4.63;1.58;;;;;;;17.95;81.21;99139.72;5031832;28;20025;-61
2023/08/03 08:34:38;;;;;;;3.88;1.00;;;;;;;17.85;82.76;99156.53;5031800;28;20041;-63
2023/08/03 08:37:03;;;;;;;5.30;1.70;;;;;;;17.73;82.65;99159.31;5031966;28;20444;-65
2023/08/03 08:39:29;;;;;;;3.90;0.82;;;;;;;17.72;83.80;99160.38;5031504;28;20030;-66
2023/08/03 08:41:55;;;;;;;4.47;1.10;;;;;;;17.69;83.59;99158.16;5031522;28;20428;-66
2023/08/03 08:44:21;;;;;;;4.60;1.13;;;;;;;17.70;84.27;99153.56;5031705;28;20041;-65
2023/08/03 08:46:46;;;;;;;7.22;1.50;;;;;;;17.69;84.97;99160.84;5031554;28;20044;-65
2023/08/03 08:49:12;;;;;;;4.25;1.13;;;;;;;17.66;85.33;99163.19;5031424;28;20025;-65
2023/08/03 08:51:41;;;;;;;1.98;0.80;;;;;;;17.64;85.67;99161.56;5031551;28;20109;-65
2023/08/03 08:54:07;;;;;;;5.88;1.10;;;;;;;17.66;85.72;99164.00;5031713;28;20472;-65
2023/08/03 08:56:33;;;;;;;5.38;1.05;;;;;;;17.69;86.33;99173.50;5031443;28;20030;-66
2023/08/03 08:58:58;;;;;;;2.85;1.05;;;;;;;17.67;85.80;99167.50;5031241;28;20485;-65
2023/08/03 09:01:24;;;;;;;5.65;1.25;;;;;;;17.73;84.59;99169.25;5030391;28;20034;-64
2023/08/03 09:03:52;;;;;;;7.57;1.15;;;;;;;17.80;85.23;99173.44;5031558;28;20072;-66
2023/08/03 09:06:21;;;;;;;3.05;1.25;;;;;;;17.81;85.64;99185.03;5031449;28;20041;-65
2023/08/03 09:08:49;;;;;;;3.92;1.10;;;;;;;17.75;86.67;99189.53;5033886;28;20556;-65
2023/08/03 09:11:14;;;;;;;4.72;1.02;;;;;;;17.69;85.23;99200.41;5035210;28;20045;-65
2023/08/03 09:13:40;;;;;;;5.18;1.45;;;;;;;17.66;86.74;99196.31;5035133;28;20027;-65
2023/08/03 09:16:20;;;;;;;3.38;1.10;;;;;;;17.58;88.82;99202.94;5035041;28;20087;-65
2023/08/03 09:18:46;;;;;;;3.65;1.17;;;;;;;17.30;88.99;99182.28;5034860;28;20120;-65
2023/08/03 09:21:14;;;;;;;4.78;1.10;;;;;;;17.27;93.51;99208.84;5034916;28;20615;-65
2023/08/03 09:23:39;;;;;;;;;;;;;;;17.05;96.88;99227.56;5035288;28;20048;-65
2023/08/03 09:26:05;;;;;;;6.82;1.20;;;;;;;16.81;99.28;99233.00;5034826;28;19913;-65
2023/08/03 09:28:43;;;;;;;3.45;1.13;;;;;;;16.58;100.00;99230.34;5034537;28;20116;-64
2023/08/03 09:31:10;;;;;;;4.82;1.52;;;;;;;16.48;100.00;99236.31;5035016;28;20442;-65
2023/08/03 09:33:36;;;;;;;9.43;2.03;;;;;;;16.26;100.00;99233.41;5034756;28;20037;-65
2023/08/03 09:36:11;;;;;;;2.13;1.00;;;;;;;16.13;100.00;99235.53;5034481;28;20034;-65
2023/08/03 09:38:40;;;;;;;5.78;1.25;;;;;;;16.18;100.00;99238.34;5034403;28;20041;-65
2023/08/03 09:41:05;;;;;;;4.57;1.02;;;;;;;16.24;100.00;99242.78;5034595;28;20026;-66
2023/08/03 09:43:31;;;;;;;4.30;1.05;;;;;;;16.36;100.00;99254.31;5034643;28;20040;-65
2023/08/03 09:45:57;;;;;;;3.13;0.75;;;;;;;16.49;100.00;99261.31;5034479;28;20045;-65
2023/08/03 09:48:24;;;;;;;3.13;1.00;;;;;;;16.55;100.00;99255.81;5034246;28;20075;-65
2023/08/03 09:50:52;;;;;;;2.63;1.23;;;;;;;16.61;100.00;99264.81;5034370;28;20029;-65
2023/08/03 09:53:21;;;;;;;;;;;;;;;16.66;100.00;99258.72;5034915;28;20488;-65
2023/08/03 09:55:58;;;;;;;8.02;1.55;;;;;;;16.65;100.00;99255.22;5034465;28;19929;-64
2023/08/03 09:58:28;;;;;;;2.47;1.15;;;;;;;16.72;100.00;99255.13;5034162;28;20412;-65
2023/08/03 10:00:57;;;;;;;6.15;1.33;;;;;;;16.78;100.00;99264.94;5034285;28;20563;-65
2023/08/03 10:03:23;;;;;;;3.60;1.65;;;;;;;16.84;100.00;99269.38;5034164;28;20091;-65
2023/08/03 10:05:55;;;;;;;3.42;1.98;;;;;;;16.92;100.00;99269.00;5033289;28;20539;-66
2023/08/03 10:08:43;;;;;;;6.85;1.35;;;;;;;17.02;100.00;99277.28;5033392;28;20103;-66
2023/08/03 10:11:12;;;;;;;6.68;1.52;;;;;;;17.09;100.00;99277.97;5033967;28;20495;-65
2023/08/03 10:13:42;;;;;;;6.45;1.27;;;;;;;17.15;100.00;99284.25;5033894;28;20037;-64
2023/08/03 10:16:07;;;;;;;3.70;1.35;;;;;;;17.18;100.00;99286.47;5033725;28;20042;-65
2023/08/03 10:18:35;;;;;;;1.95;1.00;;;;;;;17.09;100.00;99293.28;5032898;28;20113;-65
2023/08/03 10:21:02;;;;;;;1.92;1.08;;;;;;;17.03;100.00;99289.69;5033301;28;20041;-65
2023/08/03 10:23:28;;;;;;;5.68;1.45;;;;;;;17.01;100.00;99290.94;5033672;28;20041;-65
2023/08/03 10:26:01;;;;;;;3.55;1.00;;;;;;;16.97;100.00;99287.94;5033600;28;20088;-64
2023/08/03 10:28:43;;;;;;;8.48;1.15;;;;;;;17.00;100.00;99284.75;5033052;28;20551;-65
2023/08/03 10:31:18;;;;;;;6.10;1.50;;;;;;;17.03;100.00;99278.09;5033509;28;20477;-65
2023/08/03 10:33:46;;;;;;;5.72;1.50;;;;;;;17.11;100.00;99291.16;5033924;28;20037;-65
2023/08/03 10:36:30;;;;;;;5.55;1.20;;;;;;;17.29;100.00;99288.31;5032825;28;20041;-65
2023/08/03 10:38:57;;;;;;;5.93;1.50;;;;;;;17.46;100.00;99277.56;5032738;28;20052;-64
2023/08/03 10:41:23;;;;;;;5.32;1.55;;;;;;;17.64;100.00;99279.25;5033356;28;20439;-64
2023/08/03 10:44:09;;;;;;;5.35;1.25;;;;;;;17.86;99.98;99273.97;5033340;28;20049;-65
2023/08/03 10:46:48;;;;;;;7.70;2.10;;;;;;;18.15;96.48;99274.72;5033184;28;20679;-64
2023/08/03 10:49:29;;;;;;;7.53;1.58;;;;;;;18.37;95.15;99262.09;5032267;28;20518;-65
2023/08/03 10:52:15;;;;;;;3.00;1.05;;;;;;;18.57;91.58;99263.47;5033268;28;20069;-65
2023/08/03 10:54:40;;;;;;;5.18;1.27;;;;;;;18.67;90.72;99271.72;5033179;28;20064;-64
2023/08/03 10:57:08;;;;;;;10.98;2.03;;;;;;;18.80;91.42;99255.19;5033004;28;20063;-65
2023/08/03 10:59:36;;;;;;;;;;;;;;;18.91;87.05;99261.53;5032757;28;20489;-64
2023/08/03 11:02:20;;;;;;;4.15;1.15;;;;;;;19.10;87.17;99276.31;5032848;28;19917;-65
2023/08/03 11:04:47;;;;;;;2.95;1.00;;;;;;;19.24;85.88;99274.88;5032667;28;20093;-65
2023/08/03 11:07:16;;;;;;;3.42;0.90;;;;;;;19.64;85.26;99275.56;5032802;28;20025;-64
2023/08/03 11:09:44;;;;;;;3.10;1.20;;;;;;;19.87;82.98;99277.91;5032128;28;20403;-65
2023/08/03 11:12:10;;;;;;;3.50;0.90;;;;;;;19.70;78.81;99282.66;5032662;28;20460;-65
2023/08/03 11:14:36;;;;;;;4.50;1.23;;;;;;;19.67;82.86;99289.38;5032729;28;20041;-65
2023/08/03 11:17:02;;;;;;;4.15;0.90;;;;;;;19.67;81.95;99283.97;5032616;28;20033;-65
2023/08/03 11:19:32;;;;;;;3.10;1.10;;;;;;;19.63;82.05;99282.84;5031674;28;20451;-66
2023/08/03 11:21:59;;;;;;;2.60;1.05;;;;;;;19.66;81.32;99285.03;5032362;28;20034;-66
2023/08/03 11:24:29;;;;;;;7.93;1.38;;;;;;;19.61;83.56;99287.69;5032670;28;20407;-65
2023/08/03 11:26:54;;;;;;;2.67;1.00;;;;;;;19.52;82.44;99278.38;5032445;28;20132;-65
2023/08/03 11:29:20;;;;;;;3.55;0.85;;;;;;;19.65;79.87;99288.81;5031751;28;20043;-65
2023/08/03 11:31:45;;;;;;;3.17;0.85;;;;;;;19.77;79.65;99286.78;5031878;28;20034;-65
2023/08/03 11:34:11;;;;;;;6.15;1.38;;;;;;;19.79;80.13;99287.31;5031874;28;20041;-64
2023/08/03 11:36:36;;;;;;;3.55;1.35;;;;;;;19.74;79.98;99279.16;5032460;28;20029;-65
2023/08/03 11:39:01;;;;;;;5.70;1.80;;;;;;;19.74;80.07;99279.16;5030458;28;20128;-65
2023/08/03 11:41:27;;;;;;;5.20;1.77;;;;;;;19.83;82.60;99297.63;5031657;28;20040;-65
2023/08/03 11:43:53;;;;;;;2.72;1.10;;;;;;;19.76;81.72;99298.66;5028176;28;20042;-66
2023/08/03 11:46:28;;;;;;;1.25;0.60;;;;;;;19.76;84.48;99295.94;5029349;28;20037;-66
2023/08/03 11:48:57;;;;;;;3.30;1.02;;;;;;;19.72;83.31;99285.91;5031866;28;20037;-66
2023/08/03 11:51:33;;;;;;;3.25;0.82;;;;;;;19.71;80.82;99301.31;5032270;28;20551;-66
2023/08/03 11:54:06;;;;;;;3.28;1.25;;;;;;;19.78;81.86;99293.78;5032261;28;20480;-66
2023/08/03 11:56:34;;;;;;;4.95;1.02;;;;;;;19.82;81.40;99293.28;5015193;28;20041;-65
2023/08/03 11:59:01;;;;;;;3.72;1.58;;;;;;;20.02;81.78;99296.19;5012274;28;20034;-66
2023/08/03 12:01:27;;;;;;;1.60;0.80;;;;;;;20.02;79.78;99285.38;5012356;28;20069;-66
2023/08/03 12:04:10;;;;;;;2.70;1.15;;;;;;;20.01;77.55;99283.72;5012380;28;20065;-66
2023/08/03 12:06:56;;;;;;;3.00;1.02;;;;;;;19.98;78.67;99286.94;5012344;28;20069;-66
2023/08/03 12:09:26;;;;;;;3.20;1.70;;;;;;;19.95;78.84;99292.84;5012082;28;20404;-66
2023/08/03 12:12:02;;;;;;;4.95;1.48;;;;;;;19.96;78.31;99295.31;5012426;28;20105;-66
2023/08/03 12:14:28;;;;;;;4.13;1.33;;;;;;;19.94;78.91;99293.91;5012378;28;20455;-66
2023/08/03 12:16:54;;;;;;;2.60;0.98;;;;;;;20.16;77.86;99299.25;5012217;28;20042;-66
2023/08/03 12:19:19;;;;;;;6.40;1.58;;;;;;;20.49;77.51;99303.56;5011945;28;20077;-66
2023/08/03 12:21:45;;;;;;;5.38;1.63;;;;;;;20.80;75.20;99288.31;5012074;28;20088;-66
2023/08/03 12:24:11;;;;;;;2.28;0.75;;;;;;;21.09;76.00;99288.72;5010887;28;20136;-66
2023/08/03 12:26:36;;;;;;;4.68;1.00;;;;;;;21.23;71.76;99292.56;5011955;28;20026;-66
2023/08/03 12:29:03;;;;;;;0.98;0.70;;;;;;;21.17;70.92;99288.19;5011685;28;20061;-66
2023/08/03 12:31:29;;;;;;;3.30;0.60;;;;;;;21.03;69.45;99304.13;5011939;28;20485;-66
2023/08/03 12:33:55;;;;;;;1.90;0.80;;;;;;;20.85;70.50;99293.75;5012063;28;20068;-66
2023/08/03 12:36:21;;;;;;;1.42;0.65;;;;;;;20.80;69.94;99310.81;5012011;28;20501;-66
2023/08/03 12:38:46;;;;;;;1.63;0.57;;;;;;;20.96;71.30;99302.75;5011741;28;20040;-66
2023/08/03 12:41:13;;;;;;;2.38;0.63;;;;;;;20.92;71.52;99285.41;5011943;28;20030;-66
2023/08/03 12:43:39;;;;;;;2.65;0.60;;;;;;;21.20;69.98;99303.13;5014483;28;20042;-66
2023/08/03 12:46:04;;;;;;;2.80;0.82;;;;;;;21.32;69.06;99301.84;5015785;28;20096;-66
2023/08/03 12:48:30;;;;;;;1.27;0.80;;;;;;;21.38;70.05;99311.59;5015665;28;20501;-65
2023/08/03 12:50:55;;;;;;;5.55;1.30;;;;;;;21.31;68.07;99296.66;5015527;28;20033;-66
2023/08/03 12:53:20;;;;;;;2.80;0.73;;;;;;;21.58;66.64;99312.72;5032628;28;20104;-66
2023/08/03 12:55:46;;;;;;;2.30;1.08;;;;;;;21.52;66.22;99320.03;5035494;28;20044;-65
2023/08/03 12:58:12;;;;;;;2.53;0.90;;;;;;;21.35;65.26;99312.13;5035066;28;20056;-64
2023/08/03 13:00:37;;;;;;;3.08;0.90;;;;;;;21.46;66.81;99312.19;5035293;28;20120;-65
2023/08/03 13:03:04;;;;;;;2.60;0.60;;;;;;;21.63;65.81;99312.72;5035351;28;20515;-66
2023/08/03 13:05:33;;;;;;;3.80;1.50;;;;;;;22.68;63.18;99312.19;5035330;28;20042;-65
2023/08/03 13:07:58;;;;;;;2.20;1.00;;;;;;;23.22;58.70;99314.25;5035118;28;20518;-65
2023/08/03 13:10:24;;;;;;;2.60;1.17;;;;;;;22.82;58.55;99315.97;5035193;28;20049;-65
2023/08/03 13:12:49;;;;;;;2.47;0.85;;;;;;;22.74;60.19;99305.66;5035123;28;20044;-66
2023/08/03 13:15:14;;;;;;;3.38;1.23;;;;;;;22.36;60.94;99307.91;5034938;28;20130;-66
2023/08/03 13:17:40;;;;;;;1.70;1.00;;;;;;;22.58;60.72;99312.25;5035104;28;20413;-65
2023/08/03 13:20:07;;;;;;;3.28;0.90;;;;;;;23.17;59.97;99306.91;5034718;28;20040;-66
2023/08/03 13:22:32;;;;;;;8.93;0.95;;;;;;;23.91;56.49;99302.41;5035010;28;20083;-65
2023/08/03 13:24:58;;;;;;;11.05;1.20;;;;;;;24.55;52.58;99312.22;5034959;28;20468;-65
2023/08/03 13:27:25;;;;;;;1.75;0.90;;;;;;;24.51;52.02;99294.84;5034917;28;20041;-65
2023/08/03 13:29:51;;;;;;;4.18;0.90;;;;;;;24.42;54.54;99302.00;5034868;28;20403;-66
2023/08/03 13:32:16;;;;;;;2.00;0.80;;;;;;;24.15;53.34;99298.97;5034744;28;20107;-65
2023/08/03 13:34:42;;;;;;;4.13;0.98;;;;;;;23.85;53.85;99308.97;5034765;28;20660;-66
2023/08/03 13:37:09;;;;;;;2.60;1.00;;;;;;;23.58;55.35;99317.56;5034642;28;20116;-66
2023/08/03 13:39:34;;;;;;;1.83;0.70;;;;;;;23.29;56.32;99315.56;5034667;28;20415;-66
2023/08/03 13:42:00;;;;;;;1.15;0.73;;;;;;;23.14;58.15;99322.94;5034629;28;20120;-65
2023/08/03 13:44:25;;;;;;;2.83;0.70;;;;;;;23.07;58.66;99311.56;5034563;28;20075;-65
2023/08/03 13:46:51;;;;;;;1.75;0.80;;;;;;;22.95;58.46;99311.88;5034510;28;20046;-65
2023/08/03 13:49:18;;;;;;;2.95;0.80;;;;;;;23.11;58.44;99331.66;5034240;28;20068;-66
2023/08/03 13:51:44;;;;;;;1.52;0.73;;;;;;;22.93;58.01;99317.59;5034190;28;20045;-66
2023/08/03 13:54:09;;;;;;;3.65;1.30;;;;;;;22.98;56.64;99314.88;5033833;28;20084;-65
2023/08/03 13:56:35;;;;;;;2.00;0.90;;;;;;;22.66;57.63;99325.25;5034409;28;20041;-65
2023/08/03 13:59:00;;;;;;;1.25;0.80;;;;;;;22.60;55.89;99310.06;5032736;28;20076;-65
2023/08/03 14:01:26;;;;;;;3.05;0.80;;;;;;;22.47;56.13;99314.16;5034546;28;20083;-64
2023/08/03 14:03:54;;;;;;;2.42;0.93;;;;;;;22.55;57.63;99313.59;5034092;28;20448;-64
2023/08/03 14:06:20;;;;;;;1.23;0.43;;;;;;;22.46;56.60;99320.66;5035709;28;20515;-65
2023/08/03 14:08:45;;;;;;;3.00;1.08;;;;;;;22.43;57.66;99324.75;5036050;28;20069;-65
2023/08/03 14:11:11;;;;;;;1.77;0.68;;;;;;;22.44;57.81;99323.66;5034029;28;20056;-65
2023/08/03 14:13:36;;;;;;;1.30;0.55;;;;;;;22.50;58.03;99319.03;5033901;28;20115;-65
2023/08/03 14:16:06;;;;;;;1.85;0.65;;;;;;;22.39;57.48;99339.94;5033909;28;20399;-65
2023/08/03 14:18:32;;;;;;;1.45;0.75;;;;;;;22.33;57.63;99327.44;5033594;28;20042;-65
2023/08/03 14:20:57;;;;;;;3.80;0.88;;;;;;;22.30;58.81;99333.44;5034177;28;20037;-65
2023/08/03 14:23:22;;;;;;;1.75;0.70;;;;;;;22.35;58.06;99319.84;5033829;28;20551;-65
2023/08/03 14:25:48;;;;;;;1.88;0.88;;;;;;;22.35;58.32;99333.41;5036463;28;20439;-65
2023/08/03 14:28:13;;;;;;;4.32;0.70;;;;;;;22.35;59.56;99330.69;5033361;28;20096;-65
2023/08/03 14:30:39;;;;;;;3.20;1.08;;;;;;;22.23;60.28;99335.59;5033466;28;20042;-65
2023/08/03 14:33:05;;;;;;;2.22;0.60;;;;;;;22.34;59.53;99328.25;5033610;28;20492;-65
2023/08/03 14:35:30;;;;;;;3.20;0.87;;;;;;;22.54;61.10;99335.56;5033705;28;20037;-65
2023/08/03 14:37:56;;;;;;;1.42;0.70;;;;;;;22.53;59.25;99348.31;5033136;28;20515;-64
2023/08/03 14:40:21;;;;;;;1.70;0.75;;;;;;;22.44;58.62;99339.94;5032938;28;20053;-66
2023/08/03 14:42:47;;;;;;;0.63;0.50;;;;;;;22.42;59.85;99335.84;5033493;28;20116;-66
2023/08/03 14:45:12;;;;;;;2.22;0.90;;;;;;;22.27;61.94;99339.38;5033174;28;20039;-65
2023/08/03 14:47:37;;;;;;;1.20;0.50;;;;;;;22.18;61.26;99341.03;5033321;28;20559;-66
2023/08/03 14:50:04;;;;;;;1.65;0.90;;;;;;;22.08;61.37;99335.56;5033033;28;20136;-65
2023/08/03 14:52:29;;;;;;;2.55;0.93;;;;;;;21.99;63.03;99345.31;5031966;28;20492;-65
2023/08/03 14:54:54;;;;;;;1.95;0.65;;;;;;;22.08;65.06;99341.78;5033189;28;20059;-64
2023/08/03 14:57:20;;;;;;;1.75;0.70;;;;;;;22.17;64.10;99345.66;5033008;28;20096;-66
2023/08/03 14:59:45;;;;;;;0.98;0.50;;;;;;;22.23;62.30;99343.72;5032819;28;20033;-65
2023/08/03 15:02:10;;;;;;;1.20;0.70;;;;;;;22.25;60.69;99344.28;5032951;28;20033;-65
2023/08/03 15:04:36;;;;;;;2.05;0.73;;;;;;;22.38;61.26;99345.63;5032669;28;20037;-65
2023/08/03 15:07:03;;;;;;;1.10;1.00;;;;;;;22.53;59.93;99342.09;5032496;28;20037;-66
2023/08/03 15:09:28;;;;;;;2.05;0.85;;;;;;;22.59;59.27;99336.38;5032458;28;20056;-65
2023/08/03 15:11:53;;;;;;;1.55;0.60;;;;;;;22.81;58.32;99330.63;5032745;28;20034;-64
2023/08/03 15:14:19;;;;;;;2.28;0.57;;;;;;;22.70;56.39;99334.47;5032671;28;20505;-66
2023/08/03 15:16:44;;;;;;;1.30;0.60;;;;;;;22.52;56.47;99345.91;5032816;28;20140;-65
2023/08/03 15:19:10;;;;;;;2.50;0.85;;;;;;;22.29;57.90;99341.81;5032389;28;20044;-65
2023/08/03 15:21:35;;;;;;;0.85;0.50;;;;;;;22.09;58.59;99343.44;5032655;28;20477;-65
2023/08/03 15:24:01;;;;;;;2.42;1.33;;;;;;;21.95;60.63;99347.75;5032612;28;20041;-64
2023/08/03 15:26:27;;;;;;;1.35;0.68;;;;;;;21.47;72.50;99332.75;5032536;28;20095;-67
2023/08/03 15:28:52;;;;;;;2.67;0.60;;;;;;;21.17;77.62;99336.94;5032329;28;20052;-64
2023/08/03 15:31:18;;;;;;;2.03;0.65;;;;;;;20.97;83.32;99342.25;5032520;28;20034;-65
2023/08/03 15:33:44;;;;;;;1.35;0.50;;;;;;;20.84;80.29;99338.94;5032566;28;20041;-66
2023/08/03 15:36:10;;;;;;;2.80;1.73;;;;;;;20.84;81.58;99338.94;5032510;28;20037;-65
2023/08/03 15:38:38;;;;;;;3.80;1.60;;;;;;;20.68;81.18;99348.06;5032076;28;20029;-65
2023/08/03 15:41:03;;;;;;;1.35;0.90;;;;;;;20.63;79.63;99352.63;5032423;28;20032;-65
2023/08/03 15:43:31;;;;;;;0.82;0.60;;;;;;;20.56;80.71;99359.06;5032268;28;20041;-66
2023/08/03 15:45:57;;;;;;;;;;;;;;;20.58;75.39;99367.75;5032547;28;20374;-66
2023/08/03 15:48:23;;;;;;;2.90;0.90;;;;;;;20.74;75.53;99365.16;5032006;28;19913;-66
2023/08/03 15:50:49;;;;;;;1.35;0.70;;;;;;;20.88;67.18;99344.66;5032164;28;20072;-66
2023/08/03 15:53:14;;;;;;;2.42;0.70;;;;;;;21.06;65.52;99357.75;5030984;28;20049;-66
2023/08/03 15:55:40;;;;;;;2.00;0.57;;;;;;;21.13;63.38;99352.91;5032115;28;20095;-64